• Join FlightAware (Why Join?)
  • Login
  • US Flag 
12:19AM EST


 

Airport Tracker/Info


-or-


 

Live Flight TrackerFlight Track Log ✈ JA-786A ✈ 06-May-2013 ✈ RJAA / NRT - KJFK

Flight Track Log - Related Links

Times and Time Zones

All times are in EDT time to prevent confusion due to time zone crossing. See the JA-786A flight status page for this flight to view local times or setup timezone preferences in your user account.

Time Position Orientation Groundspeed Altitude Reporting Facility
EDT Latitude Longitude Course Direction KTS MPH feet Rate Location/Type
10:26PM 35.7190 140.4090 150° Southeast 193 222 2,400  Level FlightAware
10:27PM 35.6950 140.4260 150° Southeast 193 222 3,500 1,860 Climbing FlightAware
10:27PM 35.6830 140.4340 152° Southeast 209 241 3,800 1,020 Climbing FlightAware
10:27PM 35.6600 140.4500 151° Southeast 244 281 4,200 1,500 Climbing FlightAware
10:28PM 35.6290 140.4730 149° Southeast 269 310 5,200 1,740 Climbing FlightAware
10:28PM 35.6000 140.4940 150° Southeast 297 342 5,800 1,920 Climbing FlightAware
10:29PM 35.5710 140.5150 149° Southeast 305 351 6,800 2,520 Climbing FlightAware
10:29PM 35.5490 140.5380 140° Southeast 315 362 7,700 2,880 Climbing FlightAware
10:29PM 35.5380 140.5620 119° Southeast 319 367 8,500 2,820 Climbing FlightAware
10:30PM 35.5320 140.6060 100° East 328 377 9,600 2,040 Climbing FlightAware
10:30PM 35.5260 140.6900 95° East 360 414 10,900 1,440 Climbing FlightAware
10:31PM 35.5190 140.7750 96° East 397 457 11,700 1,800 Climbing FlightAware
10:32PM 35.5200 140.8810 89° East 415 478 13,500 2,460 Climbing FlightAware
10:33PM 35.5420 140.9740 74° East 423 487 15,200 2,400 Climbing FlightAware
10:33PM 35.5640 141.0690 74° East 429 494 16,700 2,160 Climbing FlightAware
10:34PM 35.5960 141.1750 70° East 441 507 18,300 2,040 Climbing FlightAware
10:35PM 35.6600 141.2760 52° Northeast 448 516 20,100 1,740 Climbing FlightAware
10:36PM 35.7080 141.3480 51° Northeast 457 526 21,100 1,800 Climbing FlightAware
10:36PM 35.7680 141.4380 51° Northeast 467 537 22,500 1,920 Climbing FlightAware
10:37PM 35.8330 141.5350 50° Northeast 469 540 23,900 1,620 Climbing FlightAware
10:38PM 35.8870 141.6170 51° Northeast 484 557 24,800 1,380 Climbing FlightAware
10:38PM 35.9490 141.7100 51° Northeast 490 564 25,900 1,500 Climbing FlightAware
10:39PM 36.0050 141.7950 51° Northeast 500 575 26,800 1,440 Climbing FlightAware
10:40PM 36.0800 141.9090 51° Northeast 506 582 28,000 1,260 Climbing FlightAware
10:40PM 36.1340 141.9910 51° Northeast 510 587 28,700 720 Climbing FlightAware
10:43PM 36.3891 142.1492 27° Northeast  Level Estimated
10:43PM 36.3200 142.2770 27° Northeast 516 594 30,000  Level FlightAware
10:43PM 36.3710 142.3550 51° Northeast 516 594 30,000  Level FlightAware
10:44PM 36.4330 142.4500 51° Northeast 521 600 30,000  Level FlightAware
10:45PM 36.5010 142.5550 51° Northeast 521 600 30,000  Level FlightAware
10:45PM 36.5660 142.6540 51° Northeast 521 600 30,000  Level FlightAware
10:46PM 36.6180 142.7340 51° Northeast 521 600 30,000  Level FlightAware
10:47PM 36.6690 142.8130 51° Northeast 521 600 30,000  Level FlightAware
10:47PM 36.7210 142.8930 51° Northeast 521 600 30,000  Level FlightAware
10:48PM 36.7720 142.9720 51° Northeast 521 600 30,000  Level FlightAware
10:51PM 37.0772 143.1682 27° Northeast  Level Estimated
10:52PM 37.2008 143.2482 27° Northeast  Level Estimated
10:53PM 37.3244 143.3285 27° Northeast  Level Estimated
10:54PM 37.4479 143.4090 27° Northeast  Level Estimated
10:55PM 37.5714 143.4898 27° Northeast  Level Estimated
10:56PM 37.6948 143.5708 27° Northeast  Level Estimated
10:57PM 37.8182 143.6521 28° Northeast  Level Estimated
10:58PM 37.9415 143.7337 28° Northeast  Level Estimated
10:59PM 38.0648 143.8156 28° Northeast  Level Estimated
11:00PM 38.1880 143.8978 28° Northeast  Level Estimated
11:01PM 38.3111 143.9802 28° Northeast  Level Estimated
11:02PM 38.4342 144.0629 28° Northeast  Level Estimated
11:03PM 38.5572 144.1459 28° Northeast  Level Estimated
11:04PM 38.6801 144.2292 28° Northeast  Level Estimated
11:05PM 38.8031 144.3127 28° Northeast  Level Estimated
11:06PM 38.9259 144.3966 28° Northeast  Level Estimated
11:07PM 39.0487 144.4807 28° Northeast  Level Estimated
11:08PM 39.1714 144.5651 28° Northeast  Level Estimated
11:09PM 39.2940 144.6499 28° Northeast  Level Estimated
11:10PM 39.4166 144.7349 28° Northeast  Level Estimated
11:11PM 39.5392 144.8202 28° Northeast  Level Estimated
11:12PM 39.6617 144.9058 28° Northeast  Level Estimated
11:13PM 39.7841 144.9918 28° Northeast  Level Estimated
11:14PM 39.9064 145.0780 28° Northeast  Level Estimated
11:15PM 40.0287 145.1645 28° Northeast  Level Estimated
11:16PM 40.1509 145.2514 29° Northeast  Level Estimated
11:17PM 40.2731 145.3386 29° Northeast  Level Estimated
11:18PM 40.3952 145.4260 29° Northeast  Level Estimated
11:19PM 40.5172 145.5138 29° Northeast  Level Estimated
11:20PM 40.6391 145.6020 29° Northeast  Level Estimated
11:21PM 40.7610 145.6904 29° Northeast  Level Estimated
11:22PM 40.8828 145.7792 29° Northeast  Level Estimated
11:23PM 41.0046 145.8683 29° Northeast  Level Estimated
11:24PM 41.1263 145.9577 29° Northeast  Level Estimated
11:25PM 41.2479 146.0475 29° Northeast  Level Estimated
11:26PM 41.3694 146.1375 29° Northeast  Level Estimated
11:27PM 41.4909 146.2280 29° Northeast  Level Estimated
11:28PM 41.6123 146.3187 29° Northeast  Level Estimated
11:29PM 41.7336 146.4099 29° Northeast  Level Estimated
11:30PM 41.8549 146.5013 29° Northeast  Level Estimated
11:31PM 41.9761 146.5931 29° Northeast  Level Estimated
11:32PM 42.0972 146.6853 29° Northeast  Level Estimated
11:33PM 42.2182 146.7778 30° Northeast  Level Estimated
11:34PM 42.3392 146.8706 30° Northeast  Level Estimated
11:35PM 42.4601 146.9639 30° Northeast  Level Estimated
11:36PM 42.5809 147.0574 30° Northeast  Level Estimated
11:37PM 42.7016 147.1514 30° Northeast  Level Estimated
11:38PM 42.8223 147.2457 30° Northeast  Level Estimated
11:39PM 42.9428 147.3404 30° Northeast  Level Estimated
11:40PM 43.0633 147.4354 30° Northeast  Level Estimated
11:41PM 43.1838 147.5308 30° Northeast  Level Estimated
11:42PM 43.3041 147.6266 30° Northeast  Level Estimated
11:43PM 43.4244 147.7228 30° Northeast  Level Estimated
11:44PM 43.5445 147.8194 30° Northeast  Level Estimated
11:45PM 43.6646 147.9163 30° Northeast  Level Estimated
11:46PM 43.7847 148.0137 30° Northeast  Level Estimated
11:47PM 43.9046 148.1114 30° Northeast  Level Estimated
11:48PM 44.0244 148.2095 30° Northeast  Level Estimated
11:49PM 44.1442 148.3080 31° Northeast  Level Estimated
11:50PM 44.2639 148.4070 31° Northeast  Level Estimated
11:51PM 44.3835 148.5063 31° Northeast  Level Estimated
11:52PM 44.5030 148.6060 31° Northeast  Level Estimated
11:53PM 44.6224 148.7061 31° Northeast  Level Estimated
11:54PM 44.7417 148.8067 31° Northeast  Level Estimated
11:55PM 44.8610 148.9077 31° Northeast  Level Estimated
11:56PM 44.9802 149.0090 31° Northeast  Level Estimated
11:57PM 45.0992 149.1109 31° Northeast  Level Estimated
11:58PM 45.2182 149.2131 31° Northeast  Level Estimated
11:59PM 45.3371 149.3158 31° Northeast  Level Estimated
12:00AM 45.4559 149.4189 31° Northeast  Level Estimated
12:01AM 45.5746 149.5224 31° Northeast  Level Estimated
12:02AM 45.6932 149.6263 31° Northeast  Level Estimated
12:03AM 45.8117 149.7308 32° Northeast  Level Estimated
12:04AM 45.9301 149.8356 32° Northeast  Level Estimated
12:05AM 46.0484 149.9409 32° Northeast  Level Estimated
12:06AM 46.1666 150.0467 32° Northeast  Level Estimated
12:07AM 46.2848 150.1529 32° Northeast  Level Estimated
12:08AM 46.4028 150.2596 32° Northeast  Level Estimated
12:09AM 46.5207 150.3667 32° Northeast  Level Estimated
12:10AM 46.6385 150.4743 32° Northeast  Level Estimated
12:11AM 46.7562 150.5824 32° Northeast  Level Estimated
12:12AM 46.8739 150.6909 32° Northeast  Level Estimated
12:13AM 46.9914 150.7999 32° Northeast  Level Estimated
12:14AM 47.1088 150.9094 32° Northeast  Level Estimated
12:15AM 47.2261 151.0194 32° Northeast  Level Estimated
12:16AM 47.3433 151.1299 33° Northeast  Level Estimated
12:17AM 47.4604 151.2408 33° Northeast  Level Estimated
12:18AM 47.5774 151.3523 33° Northeast  Level Estimated
12:19AM 47.6943 151.4642 33° Northeast  Level Estimated
12:20AM 47.8110 151.5767 33° Northeast  Level Estimated
12:21AM 47.9277 151.6897 33° Northeast  Level Estimated
12:22AM 48.0443 151.8031 33° Northeast  Level Estimated
12:23AM 48.1607 151.9171 33° Northeast  Level Estimated
12:24AM 48.2770 152.0316 33° Northeast  Level Estimated
12:25AM 48.3932 152.1467 33° Northeast  Level Estimated
12:26AM 48.5093 152.2622 33° Northeast  Level Estimated
12:27AM 48.6253 152.3783 33° Northeast  Level Estimated
12:28AM 48.7412 152.4949 34° Northeast  Level Estimated
12:29AM 48.8569 152.6121 34° Northeast  Level Estimated
12:30AM 48.9725 152.7298 34° Northeast  Level Estimated
12:31AM 49.0880 152.8480 34° Northeast  Level Estimated
12:32AM 49.2034 152.9668 34° Northeast  Level Estimated
12:33AM 49.3187 153.0862 34° Northeast  Level Estimated
12:34AM 49.4338 153.2061 34° Northeast  Level Estimated
12:35AM 49.5488 153.3266 34° Northeast  Level Estimated
12:36AM 49.6637 153.4476 34° Northeast  Level Estimated
12:37AM 49.7785 153.5693 34° Northeast  Level Estimated
12:38AM 49.8931 153.6915 34° Northeast  Level Estimated
12:39AM 50.0076 153.8143 35° Northeast  Level Estimated
12:40AM 50.1220 153.9376 35° Northeast  Level Estimated
12:41AM 50.2362 154.0616 35° Northeast  Level Estimated
12:42AM 50.3503 154.1861 35° Northeast  Level Estimated
12:43AM 50.4643 154.3113 35° Northeast  Level Estimated
12:44AM 50.5781 154.4370 35° Northeast  Level Estimated
12:45AM 50.6918 154.5634 35° Northeast  Level Estimated
12:46AM 50.8054 154.6904 35° Northeast  Level Estimated
12:47AM 50.9188 154.8180 35° Northeast  Level Estimated
12:48AM 51.0321 154.9462 35° Northeast  Level Estimated
12:49AM 51.1453 155.0750 36° Northeast  Level Estimated
12:49AM 48.2833 160.6833 54° Northeast 500 575 31,000  Level Anchorage Center
12:50AM 51.2583 155.2045 36° Northeast  Level Estimated
12:51AM 51.3711 155.3346 36° Northeast  Level Estimated
12:52AM 51.4839 155.4654 36° Northeast  Level Estimated
12:53AM 51.5964 155.5968 36° Northeast  Level Estimated
12:54AM 51.7089 155.7289 36° Northeast  Level Estimated
12:55AM 51.8211 155.8616 36° Northeast  Level Estimated
12:56AM 48.8229 161.8258 55° Northeast 500 575 31,000  Level FlightAware Transoceanic
12:57AM 48.8991 161.9910 55° Northeast 500 575 31,000  Level FlightAware Transoceanic
12:58AM 48.9750 162.1568 55° Northeast 500 575 31,000  Level FlightAware Transoceanic
12:58AM 48.9833 162.1667 55° Northeast 498 573 31,000  Level Anchorage Center
12:59AM 49.0507 162.3230 55° Northeast 500 575 31,000  Level FlightAware Transoceanic
01:00AM 49.1261 162.4897 55° Northeast 500 575 31,000  Level FlightAware Transoceanic
01:01AM 49.2013 162.6569 56° Northeast 500 575 31,000  Level FlightAware Transoceanic
01:02AM 49.2763 162.8247 56° Northeast 500 575 31,000  Level FlightAware Transoceanic
01:03AM 49.3510 162.9929 56° Northeast 500 575 31,000  Level FlightAware Transoceanic
01:04AM 49.4327 163.1706 56° Northeast 498 573 31,000  Level FlightAware Transoceanic
01:05AM 49.5067 163.3397 56° Northeast 498 573 31,000  Level FlightAware Transoceanic
01:06AM 49.5805 163.5093 56° Northeast 498 573 31,000  Level FlightAware Transoceanic
01:07AM 49.6540 163.6794 56° Northeast 498 573 31,000  Level FlightAware Transoceanic
01:08AM 49.7273 163.8500 56° Northeast 498 573 31,000  Level FlightAware Transoceanic
01:09AM 49.8003 164.0212 57° Northeast 498 573 31,000  Level FlightAware Transoceanic
01:10AM 49.8731 164.1928 57° Northeast 498 573 31,000  Level FlightAware Transoceanic
01:11AM 49.9457 164.3650 57° Northeast 498 573 31,000  Level FlightAware Transoceanic
01:12AM 50.0179 164.5377 57° Northeast 498 573 31,000  Level FlightAware Transoceanic
01:13AM 50.0900 164.7109 57° Northeast 498 573 31,000  Level FlightAware Transoceanic
01:14AM 50.1617 164.8847 57° Northeast 498 573 31,000  Level FlightAware Transoceanic
01:15AM 50.2332 165.0589 57° Northeast 498 573 31,000  Level FlightAware Transoceanic
01:16AM 50.3045 165.2337 58° Northeast 498 573 31,000  Level FlightAware Transoceanic
01:17AM 50.3754 165.4090 58° Northeast 498 573 31,000  Level FlightAware Transoceanic
01:17AM 50.4000 165.5167 58° Northeast 479 551 31,000  Level Anchorage Center
01:18AM 50.4461 165.5849 58° Northeast 498 573 31,000  Level FlightAware Transoceanic
01:19AM 50.5166 165.7612 58° Northeast 498 573 31,000  Level FlightAware Transoceanic
01:20AM 50.5868 165.9381 58° Northeast 498 573 31,000  Level FlightAware Transoceanic
01:21AM 50.6567 166.1155 58° Northeast 498 573 31,000  Level FlightAware Transoceanic
01:22AM 50.7263 166.2935 58° Northeast 498 573 31,000  Level FlightAware Transoceanic
01:23AM 50.8142 166.5577 58° Northeast 479 551 31,000  Level FlightAware Transoceanic
01:24AM 50.8823 166.7330 58° Northeast 479 551 31,000  Level FlightAware Transoceanic
01:24AM 50.9167 166.8000 59° Northeast 473 544 31,000  Level Anchorage Center
01:25AM 50.9502 166.9088 59° Northeast 479 551 31,000  Level FlightAware Transoceanic
01:26AM 51.0178 167.0851 59° Northeast 479 551 31,000  Level FlightAware Transoceanic
01:27AM 51.0851 167.2619 59° Northeast 479 551 31,000  Level FlightAware Transoceanic
01:28AM 51.1522 167.4393 59° Northeast 479 551 31,000  Level FlightAware Transoceanic
01:29AM 51.2190 167.6171 59° Northeast 479 551 31,000  Level FlightAware Transoceanic
01:30AM 51.2855 167.7955 59° Northeast 479 551 31,000  Level FlightAware Transoceanic
01:31AM 51.3290 167.8970 60° Northeast 473 544 31,000  Level FlightAware Transoceanic
01:32AM 51.3967 168.0818 60° Northeast 473 544 31,000  Level FlightAware Transoceanic
01:33AM 51.4642 168.2670 60° Northeast 473 544 31,000  Level FlightAware Transoceanic
01:34AM 51.5313 168.4529 60° Northeast 473 544 31,000  Level FlightAware Transoceanic
01:34AM 51.5500 168.5333 61° Northeast 470 541 31,000  Level Anchorage Center
01:35AM 51.5981 168.6393 60° Northeast 473 544 31,000  Level FlightAware Transoceanic
01:35AM 51.6000 168.6833 62° Northeast 470 541 31,000  Level Anchorage Center
01:36AM 51.6647 168.8262 60° Northeast 473 544 31,000  Level FlightAware Transoceanic
01:36AM 51.6833 168.8833 56° Northeast 460 529 31,000  Level Anchorage Center
01:37AM 51.7309 169.0137 60° Northeast 473 544 31,000  Level FlightAware Transoceanic
01:37AM 51.7333 169.0333 62° Northeast 460 529 31,000  Level Anchorage Center
01:38AM 51.7969 169.2017 61° Northeast 473 544 31,000  Level FlightAware Transoceanic
01:38AM 51.8000 169.2333 62° Northeast 460 529 31,000  Level Anchorage Center
01:39AM 51.8625 169.3903 61° Northeast 473 544 31,000  Level FlightAware Transoceanic
01:39AM 51.8667 169.4167 59° Northeast 460 529 31,000  Level Anchorage Center
01:40AM 51.9279 169.5794 61° Northeast 473 544 31,000 960 Level FlightAware Transoceanic
01:40AM 51.9167 169.5667 62° Northeast 450 518 32,000 540 Climbing Anchorage Center
01:41AM 51.9833 169.7667 62° Northeast 450 518 32,000  Level Anchorage Center
01:42AM 52.0333 169.9167 62° Northeast 450 518 32,000  Level Anchorage Center
01:43AM 52.1000 170.1167 61° Northeast 440 506 32,000  Level Anchorage Center
01:44AM 52.1500 170.2667 61° Northeast 450 518 32,000  Level Anchorage Center
01:45AM 52.2167 170.4500 59° Northeast 450 518 32,000  Level Anchorage Center
01:46AM 52.2833 170.6000 54° Northeast 460 529 32,000  Level Anchorage Center
01:47AM 52.3667 170.7833 53° Northeast 450 518 32,000  Level Anchorage Center
01:48AM 52.4333 170.9667 59° Northeast 440 506 32,000  Level Anchorage Center
01:49AM 52.5000 171.1000 51° Northeast 450 518 32,000  Level Anchorage Center
01:50AM 52.5833 171.2833 53° Northeast 450 518 32,000  Level Anchorage Center
01:51AM 52.6500 171.4333 54° Northeast 450 518 32,000  Level Anchorage Center
01:52AM 52.7167 171.6000 57° Northeast 430 495 32,000  Level Anchorage Center
01:53AM 52.7833 171.7500 54° Northeast 440 506 32,000  Level Anchorage Center
01:54AM 52.8667 171.9333 53° Northeast 450 518 32,000  Level Anchorage Center
01:55AM 52.9167 172.0833 61° Northeast 440 506 32,000  Level Anchorage Center
01:56AM 53.0000 172.2500 50° Northeast 430 495 32,000  Level Anchorage Center
01:57AM 53.0667 172.4000 53° Northeast 440 506 32,000  Level Anchorage Center
01:58AM 53.1333 172.5833 59° Northeast 440 506 32,000  Level Anchorage Center
01:59AM 53.2167 172.7667 53° Northeast 440 506 32,100 480 Climbing Anchorage Center
02:00AM 53.2833 172.9167 53° Northeast 440 506 33,000 420 Climbing Anchorage Center
02:01AM 53.3500 173.1000 59° Northeast 430 495 33,000  Level Anchorage Center
02:02AM 53.4167 173.2500 53° Northeast 450 518 33,000  Level Anchorage Center
02:03AM 53.4667 173.4500 67° East 430 495 33,000  Level Anchorage Center
02:04AM 53.5167 173.6167 63° Northeast 450 518 33,000  Level Anchorage Center
02:05AM 53.6000 173.8000 53° Northeast 430 495 33,000  Level Anchorage Center
02:06AM 53.6500 173.9333 58° Northeast 440 506 33,000  Level Anchorage Center
02:07AM 53.7333 174.1167 52° Northeast 440 506 33,000  Level Anchorage Center
02:08AM 53.8000 174.2667 53° Northeast 430 495 33,000  Level Anchorage Center
02:09AM 53.8667 174.4500 58° Northeast 450 518 33,000  Level Anchorage Center
02:10AM 53.9333 174.6167 56° Northeast 450 518 33,000  Level Anchorage Center
02:11AM 54.0000 174.8000 58° Northeast 440 506 33,000  Level Anchorage Center
02:12AM 54.0667 175.0000 60° Northeast 440 506 33,000  Level Anchorage Center
02:13AM 54.1333 175.1500 53° Northeast 430 495 33,000  Level Anchorage Center
02:14AM 54.2000 175.3333 58° Northeast 440 506 33,000  Level Anchorage Center
02:15AM 54.2500 175.5000 63° Northeast 440 506 33,000  Level Anchorage Center
02:16AM 54.3167 175.6833 58° Northeast 440 506 33,000  Level Anchorage Center
02:17AM 54.3833 175.8500 55° Northeast 440 506 33,000  Level Anchorage Center
02:18AM 54.4333 176.0500 67° East 440 506 33,000  Level Anchorage Center
02:19AM 54.5000 176.2000 53° Northeast 440 506 33,000  Level Anchorage Center
02:20AM 54.5667 176.4000 60° Northeast 440 506 33,000  Level Anchorage Center
02:21AM 54.6333 176.6000 60° Northeast 430 495 33,000  Level Anchorage Center
02:22AM 54.6833 176.7500 60° Northeast 430 495 33,000  Level Anchorage Center
02:23AM 54.7500 176.9500 60° Northeast 430 495 33,000  Level Anchorage Center
02:24AM 54.8000 177.1000 60° Northeast 430 495 33,000  Level Anchorage Center
02:25AM 54.8667 177.3000 60° Northeast 430 495 33,000  Level Anchorage Center
02:26AM 54.9167 177.4667 62° Northeast 440 506 33,000  Level Anchorage Center
02:28AM 55.0500 177.8167 56° Northeast 430 495 33,000  Level Anchorage Center
02:30AM 55.1277 178.0802 63° Northeast  Level FlightAware Approximate
02:32AM 55.3000 178.6167 61° Northeast 451 519 33,000  Level Anchorage Center
02:37AM 55.5597 179.5200 61° Northeast  Level FlightAware Approximate
02:38AM 55.6215 179.7268 62° Northeast  Level FlightAware Approximate
02:39AM 55.6715 179.8356 62° Northeast 451 519 33,000  Level FlightAware Transoceanic
02:40AM 55.7323 -179.9591 62° Northeast 451 519 33,000  Level FlightAware Transoceanic
02:41AM 55.7927 -179.7530 63° Northeast 451 519 33,000  Level FlightAware Transoceanic
02:42AM 55.8527 -179.5464 63° Northeast 451 519 33,000  Level FlightAware Transoceanic
02:43AM 55.9124 -179.3391 63° Northeast 451 519 33,000  Level FlightAware Transoceanic
02:44AM 55.9718 -179.1311 63° Northeast 451 519 33,000  Level FlightAware Transoceanic
02:45AM 56.0308 -178.9226 63° Northeast 451 519 33,000  Level FlightAware Transoceanic
02:45AM 56.0000 -179.0500 63° Northeast 456 525 33,000  Level Anchorage Center
02:46AM 56.0894 -178.7134 63° Northeast 451 519 33,000  Level FlightAware Transoceanic
02:47AM 56.1477 -178.5035 64° Northeast 451 519 33,000  Level FlightAware Transoceanic
02:48AM 56.2056 -178.2930 64° Northeast 451 519 33,000  Level FlightAware Transoceanic
02:49AM 56.2632 -178.0819 64° Northeast 451 519 33,000  Level FlightAware Transoceanic
02:50AM 56.3204 -177.8702 64° Northeast 451 519 33,000  Level FlightAware Transoceanic
02:51AM 56.3526 -177.7664 64° Northeast 456 525 33,000  Level FlightAware Transoceanic
02:52AM 56.4101 -177.5502 64° Northeast 456 525 33,000  Level FlightAware Transoceanic
02:53AM 56.4672 -177.3333 65° Northeast 456 525 33,000  Level FlightAware Transoceanic
02:54AM 56.5239 -177.1157 65° Northeast 456 525 33,000  Level FlightAware Transoceanic
02:55AM 56.5802 -176.8976 65° Northeast 456 525 33,000  Level FlightAware Transoceanic
02:56AM 56.6362 -176.6787 65° Northeast 456 525 33,000  Level FlightAware Transoceanic
02:57AM 56.6917 -176.4592 65° Northeast 456 525 33,000  Level FlightAware Transoceanic
02:58AM 56.7469 -176.2391 66° East 456 525 33,000  Level FlightAware Transoceanic
02:58AM 56.7167 -176.3000 65° Northeast 482 555 33,000  Level Anchorage Center
02:59AM 56.8017 -176.0184 66° East 456 525 33,000  Level FlightAware Transoceanic
03:00AM 56.8561 -175.7970 66° East 456 525 33,000  Level FlightAware Transoceanic
03:01AM 56.9101 -175.5749 66° East 456 525 33,000  Level FlightAware Transoceanic
03:02AM 56.9637 -175.3522 66° East 456 525 33,000  Level FlightAware Transoceanic
03:03AM 57.0169 -175.1289 66° East 456 525 33,000  Level FlightAware Transoceanic
03:04AM 57.0475 -174.9518 66° East 482 555 33,000  Level FlightAware Transoceanic
03:04AM 57.0667 -174.8500 67° East 470 541 33,000  Level Anchorage Center
03:05AM 57.1013 -174.7247 67° East 482 555 33,000  Level FlightAware Transoceanic
03:05AM 57.1000 -174.6667 71° East 480 552 33,000  Level Anchorage Center
03:06AM 57.1546 -174.4971 67° East 482 555 33,000  Level FlightAware Transoceanic
03:06AM 57.1500 -174.4500 67° East 480 552 33,000  Level Anchorage Center
03:07AM 57.2075 -174.2687 67° East 482 555 33,000  Level FlightAware Transoceanic
03:07AM 57.2000 -174.2167 68° East 470 541 33,000  Level Anchorage Center
03:08AM 57.2600 -174.0397 67° East 482 555 33,000  Level FlightAware Transoceanic
03:08AM 57.2500 -173.9833 68° East 490 564 33,000  Level Anchorage Center
03:09AM 57.3120 -173.8101 67° East 482 555 33,000  Level FlightAware Transoceanic
03:09AM 57.3000 -173.7500 68° East 480 552 33,000  Level Anchorage Center
03:10AM 57.3500 -173.5167 68° East 480 552 33,000  Level Anchorage Center
03:11AM 57.4167 -173.2833 62° Northeast 480 552 33,000  Level Anchorage Center
03:12AM 57.4667 -173.0500 68° East 490 564 33,000 480 Level Anchorage Center
03:13AM 57.5167 -172.8167 68° East 490 564 34,000 960 Climbing Anchorage Center
03:14AM 57.5667 -172.5833 68° East 480 552 35,000 480 Climbing Anchorage Center
03:15AM 57.6167 -172.3333 69° East 510 587 35,000  Level Anchorage Center
03:16AM 57.6667 -172.1000 68° East 500 575 35,000  Level Anchorage Center
03:17AM 57.7167 -171.8500 69° East 490 564 35,000  Level Anchorage Center
03:18AM 57.7667 -171.6167 68° East 510 587 35,000  Level Anchorage Center
03:19AM 57.8167 -171.3667 69° East 500 575 35,000  Level Anchorage Center
03:20AM 57.8667 -171.1167 69° East 500 575 35,000  Level Anchorage Center
03:21AM 57.9167 -170.8667 69° East 500 575 35,000  Level Anchorage Center
03:22AM 57.9667 -170.6167 69° East 500 575 35,000  Level Anchorage Center
03:23AM 58.0333 -170.3833 62° Northeast 490 564 35,000  Level Anchorage Center
03:24AM 58.0833 -170.1167 70° East 510 587 35,000  Level Anchorage Center
03:25AM 58.1333 -169.8833 68° East 500 575 35,000  Level Anchorage Center
03:26AM 58.1833 -169.6333 69° East 500 575 35,000  Level Anchorage Center
03:27AM 58.2333 -169.3667 70° East 510 587 35,000  Level Anchorage Center
03:28AM 58.2833 -169.1167 69° East 510 587 35,000  Level Anchorage Center
03:29AM 58.3500 -168.8667 63° Northeast 510 587 35,000  Level Anchorage Center
03:30AM 58.4000 -168.6167 69° East 510 587 35,000  Level Anchorage Center
03:31AM 58.4500 -168.3500 70° East 520 598 35,000  Level Anchorage Center
03:32AM 58.5000 -168.1000 69° East 510 587 35,000  Level Anchorage Center
03:33AM 58.5333 -167.8833 73° East 510 587 35,000  Level Anchorage Center
03:34AM 58.5833 -167.6333 69° East 510 587 35,000  Level Anchorage Center
03:35AM 58.6333 -167.3667 70° East 500 575 35,000  Level Anchorage Center
03:36AM 58.6833 -167.1167 69° East 510 587 35,000  Level Anchorage Center
03:37AM 58.7333 -166.8500 70° East 510 587 35,000  Level Anchorage Center
03:38AM 58.7833 -166.5667 71° East 530 610 35,000  Level Anchorage Center
03:39AM 58.8333 -166.3000 70° East 520 598 35,000  Level Anchorage Center
03:40AM 58.8667 -166.0333 76° East 510 587 35,000  Level Anchorage Center
03:41AM 58.9167 -165.7667 70° East 510 587 35,000  Level Anchorage Center
03:42AM 58.9667 -165.5167 69° East 500 575 35,000  Level Anchorage Center
03:43AM 59.0167 -165.2500 70° East 510 587 35,000  Level Anchorage Center
03:44AM 59.0500 -164.9833 76° East 500 575 35,000  Level Anchorage Center
03:45AM 59.1000 -164.7167 70° East 500 575 35,000  Level Anchorage Center
03:46AM 59.1500 -164.4500 70° East 510 587 35,000  Level Anchorage Center
03:47AM 59.1833 -164.1833 76° East 510 587 35,000  Level Anchorage Center
03:48AM 59.2333 -163.9167 70° East 510 587 35,000  Level Anchorage Center
03:49AM 59.2667 -163.6500 76° East 510 587 35,000  Level Anchorage Center
03:50AM 59.3167 -163.3667 71° East 510 587 35,000  Level Anchorage Center
03:51AM 59.3667 -163.1000 70° East 510 587 35,000  Level Anchorage Center
03:52AM 59.4000 -162.8333 76° East 510 587 35,000  Level Anchorage Center
03:53AM 59.4500 -162.5667 70° East 510 587 35,000  Level Anchorage Center
03:54AM 59.5000 -162.2833 71° East 520 598 35,000  Level Anchorage Center
03:55AM 59.5333 -162.0167 76° East 520 598 35,000  Level Anchorage Center
03:56AM 59.5833 -161.7333 71° East 520 598 35,000  Level Anchorage Center
03:57AM 59.6333 -161.4667 70° East 520 598 35,000  Level Anchorage Center
03:58AM 59.6667 -161.2500 73° East 520 598 35,000  Level Anchorage Center
03:59AM 59.7167 -160.9167 73° East 510 587 35,000  Level Anchorage Center
04:00AM 59.7500 -160.6333 77° East 520 598 35,000  Level Anchorage Center
04:01AM 59.8000 -160.3667 69° East 510 587 35,000  Level Anchorage Center
04:02AM 59.8333 -160.0833 77° East 520 598 35,000  Level Anchorage Center
04:03AM 59.8833 -159.8000 71° East 520 598 35,000  Level Anchorage Center
04:04AM 59.9167 -159.5167 77° East 520 598 35,000  Level Anchorage Center
04:05AM 59.9500 -159.2333 77° East 520 598 35,000  Level Anchorage Center
04:06AM 60.0000 -158.9500 70° East 520 598 35,000  Level Anchorage Center
04:07AM 60.0167 -158.7167 82° East 520 598 35,000  Level Anchorage Center
04:08AM 60.0667 -158.4333 70° East 530 610 35,000  Level Anchorage Center
04:09AM 60.1000 -158.1500 77° East 520 598 35,000  Level Anchorage Center
04:10AM 60.1333 -157.8667 77° East 520 598 35,000  Level Anchorage Center
04:11AM 60.1667 -157.5833 77° East 520 598 35,000  Level Anchorage Center
04:12AM 60.2167 -157.2333 74° East 530 610 35,000  Level Anchorage Center
04:13AM 60.2500 -156.9500 77° East 520 598 35,000  Level Anchorage Center
04:14AM 60.2833 -156.6667 77° East 520 598 35,000  Level Anchorage Center
04:15AM 60.3167 -156.3667 77° East 520 598 35,000  Level Anchorage Center
04:16AM 60.3333 -156.1333 82° East 520 598 35,000  Level Anchorage Center
04:17AM 60.3667 -155.8000 78° East 520 598 35,000  Level Anchorage Center
04:23AM 60.6070 -154.2430 78° East 532 612 35,000  Level FlightAware
04:23AM 60.6480 -154.0780 63° Northeast 531 611 35,000  Level FlightAware
04:24AM 60.6980 -153.8750 63° Northeast 526 605 35,000  Level FlightAware
04:25AM 60.7450 -153.6830 63° Northeast 527 606 35,000  Level FlightAware
04:25AM 60.7950 -153.4730 64° Northeast 526 605 35,000  Level FlightAware
04:26AM 60.8370 -153.2950 64° Northeast 526 605 35,000  Level FlightAware
04:27AM 60.8810 -153.1130 64° Northeast 528 608 35,000  Level FlightAware
04:28AM 60.9760 -152.7040 64° Northeast 527 606 35,000  Level FlightAware
04:30AM 61.0490 -152.3860 65° Northeast 527 606 35,000  Level FlightAware
04:31AM 61.1260 -152.0430 65° Northeast 523 602 35,000  Level FlightAware
04:32AM 61.1970 -151.7270 65° Northeast 523 602 35,000  Level FlightAware
04:33AM 61.2670 -151.4050 66° East 523 602 35,000  Level FlightAware
04:34AM 61.3430 -151.0560 65° Northeast 525 604 35,000  Level FlightAware
04:36AM 61.4150 -150.7130 66° East 526 605 35,000  Level FlightAware
04:37AM 61.4830 -150.3890 66° East 525 604 35,000  Level FlightAware
04:38AM 61.5500 -150.0630 67° East 522 601 35,000  Level FlightAware
04:39AM 61.6170 -149.7310 67° East 523 602 35,000  Level FlightAware
04:42AM 61.7560 -149.0280 67° East 522 601 35,000  Level FlightAware
04:44AM 61.8870 -148.3360 68° East 528 608 35,000  Level FlightAware
04:45AM 61.9460 -148.0250 68° East 527 606 35,000  Level FlightAware
04:46AM 61.9770 -147.8610 68° East 527 606 35,000  Level FlightAware
04:46AM 62.0080 -147.6980 68° East 527 606 35,000  Level FlightAware
04:48AM 62.0833 -147.1667 68° East 500 575 35,000  Level Anchorage Center
04:49AM 62.1333 -146.8833 69° East 510 587 35,000  Level Anchorage Center
04:50AM 62.2000 -146.5833 64° Northeast 520 598 35,000  Level Anchorage Center
04:51AM 62.2500 -146.2833 70° East 520 598 35,000  Level Anchorage Center
04:52AM 62.2833 -146.0000 76° East 510 587 35,000  Level Anchorage Center
04:53AM 62.3333 -145.7167 69° East 510 587 35,000  Level Anchorage Center
04:54AM 62.3833 -145.4167 70° East 510 587 35,000  Level Anchorage Center
04:55AM 62.4333 -145.1167 70° East 520 598 35,000  Level Anchorage Center
04:56AM 62.4833 -144.8167 70° East 530 610 35,000  Level Anchorage Center
04:57AM 62.5333 -144.5167 70° East 520 598 35,000  Level Anchorage Center
04:58AM 62.5667 -144.2167 76° East 520 598 35,000  Level Anchorage Center
04:59AM 62.6167 -143.9167 70° East 520 598 35,000  Level Anchorage Center
05:00AM 62.6500 -143.6167 76° East 520 598 35,000  Level Anchorage Center
05:01AM 62.7000 -143.3167 70° East 520 598 35,000  Level Anchorage Center
05:02AM 62.7500 -143.0167 70° East 520 598 35,000  Level Anchorage Center
05:03AM 62.7833 -142.7167 76° East 520 598 35,000  Level Anchorage Center
05:04AM 62.8333 -142.4167 70° East 520 598 35,000  Level Anchorage Center
05:05AM 62.8667 -142.1167 76° East 510 587 35,000  Level Anchorage Center
05:06AM 62.9000 -141.8167 76° East 510 587 35,000  Level Anchorage Center
05:07AM 62.9500 -141.5167 70° East 510 587 35,000  Level Anchorage Center
05:08AM 62.9833 -141.2167 76° East 510 587 35,000  Level Anchorage Center
05:10AM 63.0122 -140.8306 81° East  Level FlightAware Approximate
05:17AM 63.1476 -138.7111 81° East  Level FlightAware Approximate
05:18AM 63.1644 -138.4068 83° East  Level FlightAware Approximate
05:19AM 63.1805 -138.1022 83° East  Level FlightAware Approximate
05:20AM 63.1959 -137.7972 83° East  Level FlightAware Approximate
05:21AM 63.2107 -137.4919 84° East  Level FlightAware Approximate
05:22AM 63.2248 -137.1862 84° East  Level FlightAware Approximate
05:23AM 63.2383 -136.8803 84° East  Level FlightAware Approximate
05:24AM 63.2511 -136.5741 85° East  Level FlightAware Approximate
05:25AM 63.2633 -136.2677 85° East  Level FlightAware Approximate
05:26AM 63.2748 -135.9610 85° East  Level FlightAware Approximate
05:27AM 63.2856 -135.6541 85° East  Level FlightAware Approximate
05:28AM 63.2958 -135.3469 86° East  Level FlightAware Approximate
05:29AM 63.3053 -135.0395 86° East  Level FlightAware Approximate
05:30AM 63.3142 -134.7320 86° East  Level FlightAware Approximate
05:31AM 63.3224 -134.4242 86° East  Level FlightAware Approximate
05:32AM 63.3299 -134.1163 87° East  Level FlightAware Approximate
05:33AM 63.3368 -133.8082 87° East  Level FlightAware Approximate
05:34AM 63.3430 -133.5000 87° East  Level FlightAware Approximate
05:35AM 63.3485 -133.1917 88° East  Level FlightAware Approximate
05:36AM 63.3534 -132.8832 88° East  Level FlightAware Approximate
05:37AM 63.3576 -132.5747 88° East  Level FlightAware Approximate
05:38AM 63.3611 -132.2660 88° East  Level FlightAware Approximate
05:39AM 63.3640 -131.9573 89° East  Level FlightAware Approximate
05:40AM 63.3662 -131.6486 89° East  Level FlightAware Approximate
05:41AM 63.3677 -131.3398 89° East  Level FlightAware Approximate
05:42AM 63.3686 -131.0310 90° East  Level FlightAware Approximate
05:43AM 63.3688 -130.7222 90° East  Level FlightAware Approximate
05:44AM 63.3683 -130.4133 90° East  Level FlightAware Approximate
05:45AM 63.3672 -130.1045 90° East  Level FlightAware Approximate
05:46AM 63.3657 -129.7957 91° East  Level FlightAware Approximate
05:47AM 63.3636 -129.4870 91° East  Level FlightAware Approximate
05:48AM 63.3609 -129.1783 91° East  Level FlightAware Approximate
05:49AM 63.3575 -128.8696 91° East  Level FlightAware Approximate
05:50AM 63.3534 -128.5611 92° East  Level FlightAware Approximate
05:51AM 63.3487 -128.2526 92° East  Level FlightAware Approximate
05:52AM 63.3433 -127.9443 92° East  Level FlightAware Approximate
05:53AM 63.3372 -127.6360 92° East  Level FlightAware Approximate
05:54AM 63.3305 -127.3279 93° East  Level FlightAware Approximate
05:55AM 63.3231 -127.0200 93° East  Level FlightAware Approximate
05:56AM 63.3151 -126.7122 93° East  Level FlightAware Approximate
05:57AM 63.3064 -126.4046 93° East  Level FlightAware Approximate
05:58AM 63.2970 -126.0972 94° East  Level FlightAware Approximate
05:59AM 63.2869 -125.7900 94° East  Level FlightAware Approximate
06:00AM 63.2762 -125.4830 94° East  Level FlightAware Approximate
06:01AM 63.2649 -125.1763 95° East  Level FlightAware Approximate
06:02AM 63.2528 -124.8698 95° East  Level FlightAware Approximate
06:03AM 63.2402 -124.5636 95° East  Level FlightAware Approximate
06:04AM 63.2268 -124.2576 95° East  Level FlightAware Approximate
06:05AM 63.2128 -123.9519 96° East  Level FlightAware Approximate
06:06AM 63.1982 -123.6466 96° East  Level FlightAware Approximate
06:06AM 62.8500 -122.6500 97° East 550 633 35,000  Level Edmonton Center
06:07AM 63.1829 -123.3415 96° East  Level FlightAware Approximate
06:07AM 62.8333 -122.3167 96° East 550 633 35,000  Level Edmonton Center
06:08AM 63.1676 -123.0366 96° East  Level FlightAware Approximate
06:08AM 62.8000 -122.0000 103° East 550 633 35,000  Level Edmonton Center
06:09AM 63.1516 -122.7321 96° East  Level FlightAware Approximate
06:09AM 62.7500 -121.6333 106° East 550 633 35,000  Level Edmonton Center
06:10AM 63.1349 -122.4279 97° East  Level FlightAware Approximate
06:10AM 62.7167 -121.3167 103° East 550 633 35,000  Level Edmonton Center
06:11AM 63.1177 -122.1240 97° East  Level FlightAware Approximate
06:11AM 62.6833 -120.9833 102° East 550 633 35,000  Level Edmonton Center
06:12AM 62.6500 -120.6667 103° East 550 633 35,000  Level Edmonton Center
06:13AM 62.6000 -120.3333 108° East 550 633 35,000  Level Edmonton Center
06:14AM 62.5667 -120.0167 103° East 550 633 35,000  Level Edmonton Center
06:15AM 62.5333 -119.7000 103° East 550 633 35,000  Level Edmonton Center
06:16AM 62.5000 -119.3833 103° East 560 644 35,000  Level Edmonton Center
06:17AM 62.4500 -119.0500 108° East 550 633 35,000  Level Edmonton Center
06:18AM 62.4167 -118.7000 101° East 550 633 35,000  Level Edmonton Center
06:19AM 62.3833 -118.3833 103° East 560 644 35,000  Level Edmonton Center
06:20AM 62.3333 -118.0667 109° East 550 633 35,000  Level Edmonton Center
06:21AM 62.2833 -117.7167 107° East 550 633 35,000  Level Edmonton Center
06:22AM 62.2500 -117.4000 103° East 550 633 35,000  Level Edmonton Center
06:23AM 62.1833 -117.0833 114° Southeast 550 633 35,000  Level Edmonton Center
06:24AM 62.1500 -116.7667 103° East 550 633 35,000  Level Edmonton Center
06:25AM 62.1000 -116.4667 109° East 550 633 35,000  Level Edmonton Center
06:26AM 62.0500 -116.1500 108° East 550 633 35,000  Level Edmonton Center
06:27AM 62.0167 -115.8500 103° East 550 633 35,000  Level Edmonton Center
06:28AM 61.9500 -115.5333 114° Southeast 550 633 35,000  Level Edmonton Center
06:29AM 61.9000 -115.2167 108° East 550 633 35,000  Level Edmonton Center
06:30AM 61.8667 -114.8833 102° East 550 633 35,000  Level Edmonton Center
06:31AM 61.8000 -114.5667 114° Southeast 560 644 35,000  Level Edmonton Center
06:32AM 61.7500 -114.2667 109° East 560 644 35,000  Level Edmonton Center
06:33AM 61.7000 -113.9333 107° East 560 644 35,000  Level Edmonton Center
06:34AM 61.6333 -113.6167 114° Southeast 560 644 35,000  Level Edmonton Center
06:35AM 61.5833 -113.3167 109° East 560 644 35,000  Level Edmonton Center
06:36AM 61.5333 -113.0167 109° East 560 644 35,000  Level Edmonton Center
06:37AM 61.4667 -112.7167 115° Southeast 560 644 35,000  Level Edmonton Center
06:38AM 61.4167 -112.3833 107° East 560 644 35,000  Level Edmonton Center
06:39AM 61.3667 -112.0833 109° East 560 644 35,000  Level Edmonton Center
06:40AM 61.3000 -111.7500 112° Southeast 560 644 35,000  Level Edmonton Center
06:41AM 61.2500 -111.4500 109° East 560 644 35,000  Level Edmonton Center
06:42AM 61.2000 -111.1667 110° East 560 644 35,000  Level Edmonton Center
06:43AM 61.1167 -110.8667 120° Southeast 560 644 35,000  Level Edmonton Center
06:44AM 61.0667 -110.5333 107° East 560 644 35,000  Level Edmonton Center
06:45AM 61.0167 -110.2500 110° East 560 644 35,000  Level Edmonton Center
06:46AM 60.9500 -109.9667 116° Southeast 560 644 35,000  Level Edmonton Center
06:47AM 60.8833 -109.6667 114° Southeast 560 644 35,000  Level Edmonton Center
06:48AM 60.8167 -109.3833 116° Southeast 560 644 35,000  Level Edmonton Center
06:49AM 60.7500 -109.0833 114° Southeast 560 644 35,000  Level Edmonton Center
06:50AM 60.6833 -108.7667 113° Southeast 560 644 35,000  Level Edmonton Center
06:51AM 60.6333 -108.4833 110° East 560 644 35,000  Level Edmonton Center
06:52AM 60.5500 -108.2000 121° Southeast 560 644 35,000  Level Edmonton Center
06:53AM 60.4833 -107.9167 115° Southeast 560 644 35,000  Level Edmonton Center
06:54AM 60.4167 -107.6000 113° Southeast 560 644 35,000  Level Edmonton Center
06:55AM 60.3500 -107.3167 115° Southeast 560 644 35,000  Level Edmonton Center
06:56AM 60.2833 -107.0167 114° Southeast 560 644 35,000  Level Edmonton Center
06:57AM 60.2167 -106.7333 115° Southeast 560 644 35,000  Level Edmonton Center
06:58AM 60.1333 -106.4500 120° Southeast 560 644 35,000  Level Edmonton Center
06:59AM 60.0667 -106.1833 117° Southeast 560 644 35,000  Level Edmonton Center
07:00AM 60.0000 -105.8667 113° Southeast 560 644 35,000  Level Edmonton Center
07:01AM 59.9167 -105.6000 122° Southeast 560 644 35,000  Level Edmonton Center
07:02AM 59.8500 -105.3333 116° Southeast 560 644 35,000  Level Edmonton Center
07:03AM 59.7833 -105.0333 114° Southeast 570 656 35,000  Level Edmonton Center
07:04AM 59.7000 -104.7500 120° Southeast 570 656 35,000  Level Edmonton Center
07:05AM 59.6333 -104.4833 116° Southeast 570 656 35,000  Level Edmonton Center
07:06AM 59.5667 -104.1833 114° Southeast 570 656 35,000  Level Edmonton Center
07:07AM 59.4833 -103.9167 122° Southeast 560 644 35,000  Level Edmonton Center
07:08AM 59.4000 -103.6500 121° Southeast 560 644 35,000  Level Edmonton Center
07:09AM 59.3333 -103.3667 115° Southeast 570 656 35,000  Level Edmonton Center
07:10AM 59.2500 -103.1000 121° Southeast 570 656 35,000  Level Edmonton Center
07:11AM 59.1833 -102.8333 116° Southeast 570 656 35,000  Level Edmonton Center
07:12AM 59.0833 -102.5500 124° Southeast 570 656 35,000  Level Edmonton Center
07:13AM 59.0167 -102.2833 116° Southeast 570 656 35,000  Level Edmonton Center
07:14AM 58.9333 -102.0333 123° Southeast 570 656 35,000  Level Edmonton Center
07:15AM 58.8500 -101.7500 120° Southeast 570 656 35,000  Level Edmonton Center
07:16AM 58.7667 -101.4500 118° Southeast 570 656 35,000  Level Edmonton Center
07:17AM 58.6833 -101.2000 123° Southeast 570 656 35,000  Level Edmonton Center
07:18AM 58.6000 -100.9500 123° Southeast 570 656 35,000  Level Edmonton Center
07:19AM 58.5333 -100.6667 114° Southeast 570 656 35,000  Level Edmonton Center
07:20AM 58.4333 -100.4167 127° Southeast 570 656 35,000  Level Edmonton Center
07:21AM 58.3500 -100.1667 122° Southeast 570 656 35,000  Level Edmonton Center
07:22AM 58.2667 -99.9000 121° Southeast 570 656 35,000  Level Edmonton Center
07:23AM 58.1833 -99.6500 122° Southeast 570 656 35,000  Level Edmonton Center
07:24AM 58.1000 -99.4000 122° Southeast 570 656 35,000  Level Edmonton Center
07:25AM 58.0000 -99.1500 127° Southeast 560 644 35,000  Level Edmonton Center
07:26AM 57.9333 -98.8833 115° Southeast 560 644 35,000  Level Edmonton Center
07:27AM 57.8500 -98.6333 122° Southeast 560 644 35,000  Level Edmonton Center
07:28AM 57.7500 -98.3667 125° Southeast 560 644 35,000  Level Edmonton Center
07:29AM 57.6667 -98.1333 124° Southeast 560 644 35,000  Level Edmonton Center
07:30AM 57.5833 -97.9000 124° Southeast 560 644 35,000  Level Edmonton Center
07:31AM 57.4833 -97.6667 129° Southeast 560 644 35,000  Level Edmonton Center
07:32AM 57.4000 -97.4167 122° Southeast 560 644 35,000  Level Edmonton Center
07:33AM 57.3000 -97.1667 126° Southeast 560 644 35,000  Level Edmonton Center
07:34AM 57.2167 -96.9333 123° Southeast 560 644 35,000  Level Edmonton Center
07:35AM 57.1333 -96.7000 123° Southeast 560 644 35,000  Level Edmonton Center
07:36AM 57.0500 -96.4667 123° Southeast 550 633 35,000  Level Edmonton Center
07:37AM 56.9667 -96.2333 123° Southeast 560 644 35,000  Level Edmonton Center
07:38AM 56.8667 -95.9667 124° Southeast 550 633 35,000  Level Edmonton Center
07:39AM 56.7833 -95.7500 125° Southeast 560 644 35,000  Level Edmonton Center
07:40AM 56.6667 -95.5167 132° Southeast 550 633 35,000  Level Edmonton Center
07:41AM 56.5833 -95.3000 125° Southeast 560 644 35,000  Level Edmonton Center
07:42AM 56.5000 -95.0333 119° Southeast 560 644 35,000  Level Edmonton Center
07:43AM 56.4167 -94.8167 125° Southeast 560 644 35,000  Level Edmonton Center
07:44AM 56.3000 -94.6000 134° Southeast 560 644 35,000  Level Edmonton Center
07:45AM 56.2167 -94.3833 125° Southeast 560 644 35,000  Level Edmonton Center
07:46AM 56.1167 -94.1667 130° Southeast 560 644 35,000  Level Edmonton Center
07:47AM 56.0333 -93.9333 123° Southeast 560 644 35,000  Level Edmonton Center
07:48AM 55.9167 -93.7333 136° Southeast 560 644 35,000  Level Edmonton Center
07:49AM 55.8167 -93.4833 125° Southeast 560 644 35,000  Level Edmonton Center
07:50AM 55.7167 -93.2667 129° Southeast 560 644 35,000  Level Edmonton Center
07:51AM 55.6167 -93.0667 131° Southeast 560 644 35,000  Level Edmonton Center
07:52AM 55.5333 -92.8500 124° Southeast 560 644 35,000  Level Edmonton Center
07:53AM 55.4167 -92.6333 133° Southeast 560 644 35,000  Level Edmonton Center
07:55AM 55.2167 -92.2167 130° Southeast 560 644 35,000  Level Edmonton Center
07:56AM 55.1333 -92.0167 126° Southeast 550 633 35,000  Level Edmonton Center
07:57AM 55.0167 -91.7833 131° Southeast 550 633 35,000  Level Edmonton Center
07:58AM 54.9333 -91.6000 128° Southeast 550 633 35,000  Level Edmonton Center
08:00AM 54.7641 -91.2691 131° Southeast  Level FlightAware Approximate
08:02AM 54.5167 -90.7833 136° Southeast 540 621 35,000  Level Edmonton Center
08:03AM 54.4167 -90.6000 133° Southeast 540 621 35,000  Level Edmonton Center
08:04AM 54.3167 -90.4000 131° Southeast 540 621 35,000  Level Edmonton Center
08:05AM 54.2167 -90.2167 133° Southeast 540 621 35,000  Level Edmonton Center
08:06AM 54.1167 -90.0333 133° Southeast 530 610 35,000  Level Edmonton Center
08:07AM 54.1059 -90.0374 136° Southeast  Level FlightAware Approximate
08:07AM 54.0167 -89.8333 130° Southeast 530 610 35,000  Level Edmonton Center
08:08AM 53.9333 -89.6500 128° Southeast 530 610 35,000  Level Edmonton Center
08:09AM 53.8167 -89.4667 137° Southeast 530 610 35,000  Level Edmonton Center
08:10AM 53.7167 -89.2667 130° Southeast 530 610 35,000  Level Edmonton Center
08:12AM 53.5333 -88.9167 131° Southeast 530 610 35,000  Level Edmonton Center
08:13AM 53.4167 -88.7167 134° Southeast 520 598 35,000  Level Edmonton Center
08:14AM 53.3167 -88.5333 132° Southeast 520 598 35,000  Level Edmonton Center
08:15AM 53.2167 -88.3667 135° Southeast 520 598 35,000  Level Edmonton Center
08:16AM 53.1167 -88.1833 132° Southeast 520 598 35,000  Level Edmonton Center
08:17AM 53.0167 -88.0167 135° Southeast 520 598 35,000  Level Edmonton Center
08:19AM 52.8167 -87.6667 133° Southeast 520 598 35,000  Level Edmonton Center
08:20AM 52.7000 -87.5000 139° Southeast 510 587 35,000  Level Edmonton Center
08:21AM 52.6167 -87.3333 129° Southeast 520 598 35,000  Level Edmonton Center
08:22AM 52.5167 -87.1500 132° Southeast 510 587 35,000  Level Edmonton Center
08:23AM 52.4167 -86.9833 134° Southeast 510 587 35,000  Level Edmonton Center
08:24AM 52.3167 -86.8333 137° Southeast 510 587 35,000  Level Edmonton Center
08:25AM 52.2167 -86.6500 132° Southeast 510 587 35,000  Level Edmonton Center
08:27AM 52.0167 -86.3167 134° Southeast 510 587 35,000  Level Edmonton Center
08:28AM 51.9167 -86.1667 137° Southeast 510 587 35,000  Level Edmonton Center
08:29AM 51.8000 -86.0000 139° Southeast 510 587 35,000  Level Edmonton Center
08:31AM 51.6000 -85.6833 135° Southeast 510 587 35,000 300 Level Edmonton Center
08:32AM 51.5000 -85.5167 134° Southeast 510 587 36,000 960 Climbing Edmonton Center
08:33AM 51.4000 -85.3667 137° Southeast 500 575 37,000 480 Climbing Edmonton Center
08:34AM 51.3167 -85.2167 132° Southeast 510 587 37,000  Level Edmonton Center
08:35AM 51.2000 -85.0333 135° Southeast 510 587 37,000  Level Edmonton Center
08:37AM 51.0150 -84.7537 136° Southeast  Level FlightAware Approximate
08:38AM 50.9167 -84.5667 136° Southeast 500 575 37,000  Level Edmonton Center
08:39AM 50.8167 -84.4333 140° Southeast 500 575 37,000  Level Edmonton Center
08:41AM 50.6167 -84.1667 140° Southeast 500 575 37,000  Level Toronto Center
08:42AM 50.5167 -84.0333 140° Southeast 500 575 37,000  Level Toronto Center
08:43AM 50.4000 -83.8833 141° Southeast 500 575 37,000  Level Toronto Center
08:44AM 50.3167 -83.7167 128° Southeast 490 564 37,000  Level Toronto Center
08:45AM 50.2167 -83.5833 140° Southeast 490 564 37,000  Level Toronto Center
08:46AM 50.1000 -83.4167 137° Southeast 490 564 37,000  Level Toronto Center
08:47AM 50.0000 -83.2833 139° Southeast 490 564 37,000  Level Toronto Center
08:49AM 49.8167 -83.0167 137° Southeast 480 552 37,000  Level Toronto Center
08:50AM 49.7167 -82.8667 136° Southeast 480 552 37,000  Level Toronto Center
08:52AM 49.5333 -82.6000 137° Southeast 480 552 37,000  Level Toronto Center
08:53AM 49.4167 -82.4500 140° Southeast 480 552 37,000  Level Toronto Center
08:54AM 49.3167 -82.3333 143° Southeast 480 552 37,000  Level Toronto Center
08:56AM 49.0833 -82.1000 147° Southeast 480 552 37,000  Level Toronto Center
08:57AM 48.9667 -81.9833 147° Southeast 490 564 37,000  Level Toronto Center
08:58AM 48.8667 -81.8833 147° Southeast 490 564 37,000  Level Toronto Center
09:00AM 48.6500 -81.6500 145° Southeast 480 552 37,000  Level Toronto Center
09:01AM 48.5333 -81.5500 150° Southeast 480 552 37,000  Level Toronto Center
09:02AM 48.4167 -81.4167 143° Southeast 480 552 37,000  Level Toronto Center
09:04AM 48.2000 -81.2000 146° Southeast 490 564 37,000  Level Toronto Center
09:06AM 47.9667 -80.9833 148° Southeast 490 564 37,000  Level Toronto Center
09:07AM 47.8833 -80.8667 137° Southeast 490 564 37,000  Level Toronto Center
09:08AM 47.7500 -80.7500 150° Southeast 490 564 37,000  Level Toronto Center
09:10AM 47.5687 -80.5714 148° Southeast  Level FlightAware Approximate
09:16AM 46.9060 -79.9420 148° Southeast 481 554 37,000  Level FlightAware
09:16AM 46.8290 -79.8700 147° Southeast 482 555 37,000  Level FlightAware
09:17AM 46.7400 -79.7860 147° Southeast 485 558 37,000  Level FlightAware
09:18AM 46.6670 -79.7170 147° Southeast 488 562 37,000  Level FlightAware
09:18AM 46.5900 -79.6460 148° Southeast 488 562 37,000  Level FlightAware
09:19AM 46.5030 -79.5650 147° Southeast 488 562 37,000  Level FlightAware
09:20AM 46.4290 -79.4960 147° Southeast 488 562 37,000  Level FlightAware
09:21AM 46.3430 -79.4130 146° Southeast 489 563 37,000  Level FlightAware
09:21AM 46.2710 -79.3370 144° Southeast 492 566 37,000  Level FlightAware
09:22AM 46.1870 -79.2460 143° Southeast 492 566 37,000  Level FlightAware
09:23AM 46.1210 -79.1740 143° Southeast 491 565 37,000  Level FlightAware
09:23AM 46.0430 -79.0910 144° Southeast 489 563 37,000  Level FlightAware
09:24AM 45.9640 -79.0070 144° Southeast 487 560 37,000  Level FlightAware
09:25AM 45.8900 -78.9280 143° Southeast 486 559 37,000  Level FlightAware
09:26AM 45.8070 -78.8410 144° Southeast 486 559 37,000  Level FlightAware
09:26AM 45.7360 -78.7660 144° Southeast 485 558 37,000  Level FlightAware
09:27AM 45.6650 -78.6920 144° Southeast 486 559 37,000  Level FlightAware
09:28AM 45.5820 -78.6050 144° Southeast 487 560 37,000  Level FlightAware
09:28AM 45.5100 -78.5300 144° Southeast 488 562 37,000  Level FlightAware
09:29AM 45.4360 -78.4530 144° Southeast 486 559 37,000  Level FlightAware
09:30AM 45.3540 -78.3680 144° Southeast 484 557 37,000  Level FlightAware
09:30AM 45.2820 -78.2940 144° Southeast 483 556 37,000  Level FlightAware
09:31AM 45.2010 -78.2110 144° Southeast 484 557 37,000  Level FlightAware
09:32AM 45.1300 -78.1370 144° Southeast 486 559 37,000  Level FlightAware
09:33AM 45.0460 -78.0520 144° Southeast 486 559 37,000  Level FlightAware
09:33AM 44.9750 -77.9790 144° Southeast 484 557 37,000  Level FlightAware
09:34AM 44.9020 -77.9050 144° Southeast 485 558 37,000  Level FlightAware
09:35AM 44.8180 -77.8200 144° Southeast 484 557 37,000  Level FlightAware
09:35AM 44.7490 -77.7510 145° Southeast 483 556 37,000  Level FlightAware
09:36AM 44.6740 -77.6760 145° Southeast 483 556 37,000  Level FlightAware
09:37AM 44.5920 -77.5930 144° Southeast 480 552 37,000  Level FlightAware
09:37AM 44.5270 -77.5290 145° Southeast 480 552 37,000  Level FlightAware
09:38AM 44.4380 -77.4400 144° Southeast 480 552 37,000  Level FlightAware
09:39AM 44.3700 -77.3730 145° Southeast 479 551 37,000  Level FlightAware
09:39AM 44.2940 -77.2970 144° Southeast 479 551 37,000  Level FlightAware
09:40AM 44.2410 -77.2450 145° Southeast 477 549 37,000  Level FlightAware
09:41AM 44.1680 -77.1730 145° Southeast 475 547 37,000  Level FlightAware
09:41AM 44.0870 -77.0940 145° Southeast 474 545 37,000  Level FlightAware
09:42AM 44.0090 -77.0180 145° Southeast 474 545 37,000  Level FlightAware
09:43AM 43.9390 -76.9490 145° Southeast 475 547 37,000  Level FlightAware
09:43AM 43.8630 -76.8760 145° Southeast 476 548 37,000  Level FlightAware
09:44AM 43.7830 -76.7980 145° Southeast 476 548 37,000  Level FlightAware
09:45AM 43.7120 -76.7300 145° Southeast 475 547 37,000  Level FlightAware
09:46AM 43.6370 -76.6580 145° Southeast 474 545 37,000  Level FlightAware
09:46AM 43.5560 -76.5800 145° Southeast 474 545 37,000  Level FlightAware
09:47AM 43.4850 -76.5120 145° Southeast 474 545 37,000  Level FlightAware
09:48AM 43.4120 -76.4430 146° Southeast 474 545 37,000  Level FlightAware
09:48AM 43.3340 -76.3680 145° Southeast 474 545 37,000  Level FlightAware
09:49AM 43.2630 -76.3010 145° Southeast 474 545 37,000  Level FlightAware
09:50AM 43.1790 -76.2200 145° Southeast 476 548 37,000  Level FlightAware
09:50AM 43.1180 -76.1410 137° Southeast 481 554 37,000  Level FlightAware
09:51AM 43.0550 -76.0470 133° Southeast 482 555 37,000  Level FlightAware
09:52AM 42.9870 -75.9450 132° Southeast 482 555 37,000  Level FlightAware
09:53AM 42.9300 -75.8590 132° Southeast 482 555 37,000  Level FlightAware
09:53AM 42.8590 -75.7530 132° Southeast 480 552 37,000  Level FlightAware
09:54AM 42.7940 -75.6570 133° Southeast 480 552 37,000  Level FlightAware
09:55AM 42.7320 -75.5660 133° Southeast 479 551 37,000  Level FlightAware
09:55AM 42.6710 -75.4770 133° Southeast 481 554 37,000  Level FlightAware
09:56AM 42.6040 -75.3780 133° Southeast 481 554 37,000  Level FlightAware
09:57AM 42.5540 -75.3060 133° Southeast 481 554 37,000  Level FlightAware
09:57AM 42.4830 -75.2020 133° Southeast 481 554 37,000 -780 Level FlightAware
09:58AM 42.4260 -75.1180 133° Southeast 482 555 36,000 -1,980 Descending FlightAware
09:59AM 42.3490 -75.0080 133° Southeast 488 562 34,100 -2,040 Descending FlightAware
10:00AM 42.2810 -74.9100 133° Southeast 492 566 32,600 -1,020 Descending FlightAware
10:00AM 42.2190 -74.8200 133° Southeast 492 566 32,600  Level FlightAware
10:01AM 42.1670 -74.7440 133° Southeast 492 566 32,600 -2,820 Level FlightAware
10:02AM 42.0840 -74.6270 134° Southeast 463 533 28,900 -3,120 Descending FlightAware
10:03AM 42.0100 -74.5220 133° Southeast 467 537 28,000 -840 Descending FlightAware
10:03AM 41.9822 -74.4792 131° Southeast 475 547 28,000  Level FlightAware ADS-B
10:04AM 41.9355 -74.3906 125° Southeast 478 550 28,000 -1,200 Level FlightAware ADS-B
10:05AM 41.8296 -74.2805 142° Southeast 478 550 26,100 -1,860 Descending FlightAware ADS-B
10:05AM 41.7889 -74.2601 160° South 466 536 25,500 -1,800 Descending FlightAware ADS-B
10:05AM 41.7202 -74.2269 160° South 460 529 24,500 -1,980 Descending FlightAware ADS-B
10:06AM 41.6569 -74.1963 160° South 448 516 23,300 -2,100 Descending FlightAware ADS-B
10:07AM 41.5988 -74.1681 160° South 439 505 22,300 -2,040 Descending FlightAware ADS-B
10:07AM 41.5420 -74.1404 160° South 432 497 21,300 -1,980 Descending FlightAware ADS-B
10:08AM 41.4880 -74.1140 160° South 425 489 20,300 -1,500 Descending FlightAware
10:08AM 41.4471 -74.0935 159° South 422 486 20,000 -420 Descending FlightAware ADS-B
10:08AM 41.3920 -74.0714 163° South 420 483 20,000  Level FlightAware ADS-B
10:09AM 41.3715 -74.0686 174° South 421 484 20,000  Level FlightAware ADS-B
10:09AM 41.3389 -74.0704 182° South 422 486 20,000  Level FlightAware ADS-B
10:09AM 41.2804 -74.0790 186° South 423 487 20,000  Level FlightAware ADS-B
10:10AM 41.2220 -74.0884 187° South 423 487 20,000  Level FlightAware ADS-B
10:10AM 41.1607 -74.0981 187° South 422 486 20,000 -420 Level FlightAware ADS-B
10:11AM 41.1016 -74.1073 187° South 405 466 19,600 -900 Descending FlightAware ADS-B
10:11AM 41.0445 -74.1158 186° South 383 441 19,100 -900 Descending FlightAware ADS-B
10:12AM 41.0270 -74.1178 185° South 380 437 19,000 -360 Descending FlightAware ADS-B
10:12AM 41.0146 -74.1179 180° South 378 435 19,000  Level FlightAware ADS-B
10:12AM 41.0004 -74.1161 175° South 373 429 19,000  Level FlightAware ADS-B
10:12AM 40.9646 -74.1062 168° South 376 433 19,000  Level FlightAware ADS-B
10:12AM 40.9507 -74.1020 167° South 345 397 19,000  Level FlightAware ADS-B
10:12AM 40.9461 -74.1005 166° South 347 399 19,000 -480 Level FlightAware ADS-B
10:13AM 40.9304 -74.0935 161° South 332 382 18,900 -720 Descending FlightAware ADS-B
10:13AM 40.9212 -74.0869 152° Southeast 332 382 18,800 -720 Descending FlightAware ADS-B
10:13AM 40.9187 -74.0845 144° Southeast 327 376 18,800 -1,020 Level FlightAware ADS-B
10:13AM 40.9141 -74.0798 142° Southeast 326 375 18,700 -1,320 Descending FlightAware ADS-B
10:13AM 40.8831 -74.0419 137° Southeast 321 369 18,100 -1,320 Descending FlightAware ADS-B
10:13AM 40.8792 -74.0372 138° Southeast 321 369 18,000 -1,440 Descending FlightAware ADS-B
10:14AM 40.8501 -74.0014 137° Southeast 318 366 17,400 -1,440 Descending FlightAware ADS-B
10:14AM 40.8426 -73.9922 137° Southeast 318 366 17,200 -1,440 Descending FlightAware ADS-B
10:14AM 40.8180 -73.9613 136° Southeast 315 362 16,700 -1,500 Descending FlightAware ADS-B
10:14AM 40.8078 -73.9485 136° Southeast 315 362 16,400 -1,380 Descending FlightAware ADS-B
10:15AM 40.7852 -73.9204 137° Southeast 313 360 16,000 -1,320 Descending FlightAware ADS-B
10:15AM 40.7532 -73.8811 137° Southeast 309 356 15,300 -1,320 Descending FlightAware ADS-B
10:16AM 40.7171 -73.8379 138° Southeast 302 348 14,600 -1,680 Descending FlightAware ADS-B
10:16AM 40.6850 -73.7993 138° Southeast 297 342 13,500 -2,160 Descending FlightAware ADS-B
10:17AM 40.6658 -73.7754 137° Southeast 292 336 12,800 -2,580 Descending FlightAware ADS-B
10:17AM 40.6207 -73.7521 159° South 286 329 11,100 -2,700 Descending FlightAware ADS-B
10:18AM 40.5824 -73.7420 169° South 283 326 9,800 -2,520 Descending FlightAware ADS-B
10:18AM 40.5624 -73.7364 168° South 281 323 9,200 -1,980 Descending FlightAware ADS-B
10:18AM 40.5429 -73.7306 167° South 280 322 8,800 -1,320 Descending FlightAware ADS-B
10:19AM 40.5208 -73.7236 166° South 277 319 8,500 -1,140 Descending FlightAware ADS-B
10:19AM 40.5019 -73.7173 166° South 275 316 8,200 -1,200 Descending FlightAware ADS-B
10:19AM 40.4828 -73.7107 165° South 274 315 7,900 -1,140 Descending FlightAware ADS-B
10:20AM 40.4570 -73.7017 165° South 271 312 7,500 -1,320 Descending FlightAware ADS-B
10:20AM 40.4374 -73.6949 165° South 273 314 7,100 -1,440 Descending FlightAware ADS-B
10:20AM 40.4267 -73.6925 170° South 272 313 6,900 -1,320 Descending FlightAware ADS-B
10:20AM 40.4205 -73.6926 181° South 272 313 6,800 -1,500 Descending FlightAware ADS-B
10:20AM 40.4115 -73.6951 192° South 271 312 6,600 -1,800 Descending FlightAware ADS-B
10:20AM 40.4079 -73.6968 200° South 271 312 6,500 -1,020 Descending FlightAware ADS-B
10:20AM 40.3975 -73.7030 204° Southwest 270 311 6,400 -1,020 Descending FlightAware ADS-B
10:20AM 40.3942 -73.7053 208° Southwest 270 311 6,300 -1,320 Descending FlightAware ADS-B
10:21AM 40.3762 -73.7173 207° Southwest 268 308 6,000 -1,140 Descending FlightAware ADS-B
10:21AM 40.3580 -73.7293 207° Southwest 265 305 5,700 -1,140 Descending FlightAware ADS-B
10:21AM 40.3411 -73.7404 207° Southwest 263 303 5,400 -1,200 Descending FlightAware ADS-B
10:22AM 40.3196 -73.7545 207° Southwest 261 300 5,000 -1,200 Descending FlightAware ADS-B
10:22AM 40.3023 -73.7663 207° Southwest 260 299 4,700 -1,200 Descending FlightAware ADS-B
10:22AM 40.2992 -73.7689 213° Southwest 258 297 4,600 -1,380 Descending FlightAware ADS-B
10:22AM 40.2943 -73.7744 221° Southwest 257 296 4,500 -780 Descending FlightAware ADS-B
10:22AM 40.2917 -73.7784 230° Southwest 255 293 4,500  Level FlightAware ADS-B
10:22AM 40.2885 -73.7846 236° Southwest 254 292 4,500  Level FlightAware ADS-B
10:22AM 40.2849 -73.7983 251° West 250 288 4,500 -360 Level FlightAware ADS-B
10:22AM 40.2846 -73.8116 268° West 248 285 4,400 -840 Descending FlightAware ADS-B
10:22AM 40.2861 -73.8204 283° West 249 287 4,300 -1,020 Descending FlightAware ADS-B
10:23AM 40.2890 -73.8291 294° West 250 288 4,200 -720 Descending FlightAware ADS-B
10:23AM 40.2908 -73.8334 299° West 248 285 4,200 -600 Level FlightAware ADS-B
10:23AM 40.3009 -73.8564 300° West 244 281 4,000 -720 Descending FlightAware ADS-B
10:23AM 40.3099 -73.8766 300° West 238 274 3,800 -840 Descending FlightAware ADS-B
10:23AM 40.3194 -73.8896 314° West 239 275 3,600 -1,140 Descending FlightAware ADS-B
10:24AM 40.3273 -73.8966 326° Northwest 238 274 3,400 -1,260 Descending FlightAware ADS-B
10:24AM 40.3416 -73.9084 328° Northwest 238 274 3,100 -1,200 Descending FlightAware ADS-B
10:24AM 40.3613 -73.9249 327° Northwest 241 277 2,700 -600 Descending FlightAware ADS-B
10:24AM 40.3817 -73.9425 327° Northwest 260 299 2,700  Level FlightAware ADS-B
10:25AM 40.3978 -73.9562 327° Northwest 264 304 2,700  Level FlightAware ADS-B
10:25AM 40.4167 -73.9725 327° Northwest 260 299 2,700  Level FlightAware ADS-B
10:25AM 40.4372 -73.9903 327° Northwest 246 283 2,700  Level FlightAware ADS-B
10:26AM 40.4800 -73.9950 355° North 208 239 2,700  Level FlightAware
10:27AM 40.4990 -73.9850 22° Northeast 194 223 2,700  Level FlightAware
10:27AM 40.5110 -73.9770 27° Northeast 191 220 2,700 -180 Level FlightAware
10:27AM 40.5350 -73.9590 30° Northeast 173 199 2,600 -480 Descending FlightAware
10:28AM 40.5450 -73.9500 34° Northeast 169 194 2,300 -1,140 Descending FlightAware
10:28AM 40.5710 -73.9280 33° Northeast 167 192 1,600 -1,200 Descending FlightAware
10:29AM 40.5810 -73.9200 31° Northeast 164 189 1,300 -600 Descending FlightAware
10:29AM 40.5960 -73.9080 31° Northeast 145 167 1,200 -120 Descending FlightAware
10:29AM 40.6130 -73.8940 32° Northeast 140 161 1,200 -120 Level FlightAware
10:30AM 40.6290 -73.8820 30° Northeast 143 165 1,100 -600 Descending FlightAware
10:30AM 40.6440 -73.8690 33° Northeast 141 162 700 -660 Descending FlightAware
10:31AM 40.6590 -73.8510 42° Northeast 144 166 500 -360 Descending FlightAware
10:31AM 40.6650 -73.8320 67° East 141 162 400 -480 Descending FlightAware
10:32AM 40.6670 -73.8210 77° East 142 163 200 -840 Descending FlightAware
10:32AM 40.6600 -73.7950 110° East 145 167 -420 Descending FlightAware